Time;durP1;ratioP1;P1;durP2;ratioP2;P2;SDS_P1;SDS_P2;PMS_P1;PMS_P2;Temp;Humidity;BMP_temperature;BMP_pressure;BME280_temperature;BME280_humidity;BME280_pressure;Samples;Min_cycle;Max_cycle;Signal;HPM_P1;HPM_P2
2023/04/02 00:01:38;;;;;;;1.83;1.55;;;;;;;5.80;100.00;97651.78;4161365;28;20382;-74
2023/04/02 00:03:44;;;;;;;3.70;2.22;;;;;;;5.75;100.00;97654.81;4161226;28;20045;-74
2023/04/02 00:05:53;;;;;;;2.90;2.10;;;;;;;5.73;100.00;97651.66;4160856;28;20124;-73
2023/04/02 00:07:56;;;;;;;2.97;2.08;;;;;;;5.80;100.00;97662.75;4162391;28;20060;-74
2023/04/02 00:09:57;;;;;;;3.17;2.00;;;;;;;5.70;100.00;97666.88;4160771;28;20323;-73
2023/04/02 00:12:14;;;;;;;2.95;1.70;;;;;;;5.58;100.00;97665.13;4161676;28;20119;-73
2023/04/02 00:14:22;;;;;;;3.38;2.20;;;;;;;5.53;100.00;97678.34;4160186;28;20046;-74
2023/04/02 00:16:23;;;;;;;2.60;1.92;;;;;;;5.49;100.00;97667.31;4176796;28;20078;-73
2023/04/02 00:18:25;;;;;;;3.25;2.13;;;;;;;5.51;100.00;97681.44;4161486;28;20080;-73
2023/04/02 00:20:27;;;;;;;4.27;2.13;;;;;;;5.41;100.00;97682.03;4164795;28;20046;-73
2023/04/02 00:22:33;;;;;;;3.10;2.17;;;;;;;5.40;100.00;97685.94;4143182;28;20048;-73
2023/04/02 00:24:33;;;;;;;3.10;2.10;;;;;;;5.35;100.00;97697.19;4161192;28;20671;-73
2023/04/02 00:26:41;;;;;;;4.28;2.42;;;;;;;5.19;100.00;97699.22;4161829;28;20085;-73
2023/04/02 00:28:41;;;;;;;3.38;2.13;;;;;;;5.14;100.00;97700.34;4161405;28;20124;-73
2023/04/02 00:30:58;;;;;;;4.05;2.78;;;;;;;5.11;100.00;97703.78;4161187;28;20030;-73
2023/04/02 00:33:00;;;;;;;2.97;2.20;;;;;;;5.05;100.00;97708.78;4160329;28;20392;-73
2023/04/02 00:35:00;;;;;;;3.33;2.20;;;;;;;4.99;100.00;97710.22;4161071;28;20042;-73
2023/04/02 00:37:01;;;;;;;3.25;2.00;;;;;;;4.92;100.00;97710.06;4161429;28;20412;-73
2023/04/02 00:39:09;;;;;;;3.63;2.08;;;;;;;4.94;100.00;97715.97;4161180;28;20034;-73
2023/04/02 00:41:15;;;;;;;3.15;1.92;;;;;;;4.92;100.00;97723.75;4162705;28;20485;-73
2023/04/02 00:43:15;;;;;;;3.22;2.30;;;;;;;4.87;100.00;97734.19;4159749;28;20045;-73
2023/04/02 00:45:23;;;;;;;2.90;2.05;;;;;;;4.83;100.00;97734.13;4160961;28;20092;-73
2023/04/02 00:47:34;;;;;;;2.67;2.05;;;;;;;4.75;100.00;97737.88;4160091;28;20120;-73
2023/04/02 00:49:38;;;;;;;2.85;1.85;;;;;;;4.71;100.00;97748.72;4160091;28;20045;-73
2023/04/02 00:51:45;;;;;;;3.20;2.20;;;;;;;4.62;100.00;97750.09;4160798;28;20037;-73
2023/04/02 00:53:47;;;;;;;3.95;2.75;;;;;;;4.64;100.00;97753.28;4163366;28;20171;-73
2023/04/02 00:55:48;;;;;;;3.88;2.63;;;;;;;4.56;100.00;97766.03;4164250;28;20069;-73
2023/04/02 00:57:50;;;;;;;4.20;2.75;;;;;;;4.44;100.00;97755.94;4161450;28;20122;-73
2023/04/02 00:59:54;;;;;;;3.42;2.53;;;;;;;4.34;100.00;97761.16;4161701;28;20072;-73
2023/04/02 01:02:13;;;;;;;3.13;2.22;;;;;;;4.31;100.00;97765.44;4162552;28;20377;-73
2023/04/02 01:04:33;;;;;;;2.55;2.20;;;;;;;4.29;100.00;97775.13;4159393;28;20053;-73
2023/04/02 01:06:37;;;;;;;3.67;2.30;;;;;;;4.25;100.00;97783.25;4158829;28;20389;-73
2023/04/02 01:08:56;;;;;;;3.55;2.53;;;;;;;4.26;100.00;97781.31;4166462;28;20103;-73
2023/04/02 01:11:08;;;;;;;3.65;2.42;;;;;;;4.29;100.00;97791.56;4160511;28;20053;-73
2023/04/02 01:13:34;;;;;;;3.25;2.45;;;;;;;4.29;100.00;97797.81;4161043;28;20055;-73
2023/04/02 01:15:59;;;;;;;4.15;2.83;;;;;;;4.30;100.00;97795.88;4159594;28;20033;-73
2023/04/02 01:17:59;;;;;;;3.80;2.42;;;;;;;4.27;100.00;97807.56;4158944;28;20228;-73
2023/04/02 01:20:06;;;;;;;3.38;2.72;;;;;;;4.23;100.00;97804.72;4160957;28;20049;-73
2023/04/02 01:22:47;;;;;;;4.22;2.53;;;;;;;4.22;100.00;97801.19;4162410;28;20424;-73
2023/04/02 01:24:47;;;;;;;3.35;2.28;;;;;;;4.26;100.00;97809.50;4160552;28;20460;-73
2023/04/02 01:26:58;;;;;;;2.97;2.28;;;;;;;4.26;100.00;97814.19;4159491;28;20065;-73
2023/04/02 01:29:09;;;;;;;4.20;2.30;;;;;;;4.20;100.00;97830.84;4160186;28;20049;-73
2023/04/02 01:31:10;;;;;;;3.20;2.33;;;;;;;4.18;100.00;97832.38;4163866;28;20068;-73
2023/04/02 01:33:12;;;;;;;3.88;2.40;;;;;;;4.11;100.00;97829.44;4159531;28;20085;-73
2023/04/02 01:35:12;;;;;;;4.47;2.92;;;;;;;4.06;100.00;97835.19;4160113;28;20389;-73
2023/04/02 01:37:22;;;;;;;4.32;3.40;;;;;;;4.02;100.00;97847.97;4160004;28;20060;-73
2023/04/02 01:39:25;;;;;;;3.58;2.65;;;;;;;3.98;100.00;97842.41;4159124;28;20521;-73
2023/04/02 01:41:37;;;;;;;3.90;2.67;;;;;;;3.91;100.00;97859.44;4160457;28;20799;-73
2023/04/02 01:43:44;;;;;;;3.63;2.60;;;;;;;3.97;100.00;97865.41;4158403;28;20045;-73
2023/04/02 01:45:44;;;;;;;3.60;2.50;;;;;;;3.89;100.00;97866.41;4160997;28;20037;-73
2023/04/02 01:47:45;;;;;;;3.50;2.88;;;;;;;3.86;100.00;97878.03;4160594;28;20061;-73
2023/04/02 01:49:46;;;;;;;3.78;2.63;;;;;;;3.84;100.00;97892.06;4158392;28;20056;-73
2023/04/02 01:51:52;;;;;;;3.05;2.55;;;;;;;3.78;100.00;97885.25;4163561;28;20041;-73
2023/04/02 01:53:53;;;;;;;3.63;2.80;;;;;;;3.78;100.00;97889.91;4159790;28;20524;-73
2023/04/02 01:55:59;;;;;;;3.38;2.75;;;;;;;3.80;100.00;97893.09;4159814;28;20049;-73
2023/04/02 01:58:02;;;;;;;4.07;3.10;;;;;;;3.81;100.00;97902.91;4161174;28;20124;-73
2023/04/02 02:00:08;;;;;;;;;;;;;;;3.84;100.00;97913.97;4159562;28;20050;-73
2023/04/02 02:02:13;;;;;;;4.25;3.05;;;;;;;3.79;100.00;97903.25;4160801;28;19935;-73
2023/04/02 02:04:15;;;;;;;5.32;2.83;;;;;;;3.80;100.00;97917.72;4160789;28;20032;-73
2023/04/02 02:06:17;;;;;;;3.55;2.65;;;;;;;3.78;100.00;97920.81;4158486;28;20362;-73
2023/04/02 02:08:30;;;;;;;4.50;3.08;;;;;;;3.73;100.00;97917.53;4160793;28;20024;-73
2023/04/02 02:10:37;;;;;;;3.70;2.80;;;;;;;3.77;100.00;97921.16;4159601;28;20041;-73
2023/04/02 02:12:37;;;;;;;4.75;3.75;;;;;;;3.78;100.00;97928.22;4159791;28;20043;-73
2023/04/02 02:14:44;;;;;;;4.13;3.10;;;;;;;3.81;100.00;97931.09;4159471;28;20521;-73
2023/04/02 02:16:45;;;;;;;3.63;2.72;;;;;;;3.82;100.00;97938.16;4159011;28;20041;-73
2023/04/02 02:18:52;;;;;;;3.97;3.22;;;;;;;3.82;100.00;97940.88;4159654;28;20053;-73
2023/04/02 02:20:54;;;;;;;3.13;2.78;;;;;;;3.78;100.00;97948.16;4160406;28;20155;-73
2023/04/02 02:22:56;;;;;;;4.03;3.03;;;;;;;3.79;100.00;97943.50;4162025;28;20045;-73
2023/04/02 02:24:59;;;;;;;4.18;2.60;;;;;;;3.70;100.00;97951.03;4159931;28;20465;-73
2023/04/02 02:27:24;;;;;;;4.80;2.63;;;;;;;3.64;100.00;97958.69;4158711;28;20144;-73
2023/04/02 02:29:27;;;;;;;3.80;2.65;;;;;;;3.60;100.00;97964.06;4158738;28;20056;-73
2023/04/02 02:31:32;;;;;;;3.80;2.60;;;;;;;3.63;100.00;97960.63;4160138;28;20049;-73
2023/04/02 02:33:45;;;;;;;3.40;2.67;;;;;;;3.59;100.00;97965.22;4159129;28;20057;-73
2023/04/02 02:36:08;;;;;;;;;;;;;;;3.56;100.00;97974.13;4160783;28;20056;-73
2023/04/02 02:38:33;;;;;;;2.70;2.35;;;;;;;3.56;100.00;97982.31;4157405;28;20280;-72
2023/04/02 02:40:39;;;;;;;3.72;2.70;;;;;;;3.52;100.00;97986.06;4159828;28;20043;-73
2023/04/02 02:42:50;;;;;;;2.90;2.13;;;;;;;3.50;100.00;97986.41;4158505;28;20054;-73
2023/04/02 02:44:52;;;;;;;3.00;2.40;;;;;;;3.46;100.00;98004.63;4159883;28;20455;-73
2023/04/02 02:46:55;;;;;;;2.65;2.10;;;;;;;3.36;100.00;97996.91;4158527;28;20041;-73
2023/04/02 02:48:57;;;;;;;3.13;2.40;;;;;;;3.38;100.00;98000.09;4159855;28;20107;-73
2023/04/02 02:50:59;;;;;;;3.13;2.40;;;;;;;3.31;100.00;98000.69;4159742;28;20044;-73
2023/04/02 02:53:05;;;;;;;3.22;2.38;;;;;;;3.29;100.00;98002.13;4160622;28;20044;-73
2023/04/02 02:55:10;;;;;;;3.58;2.10;;;;;;;3.30;100.00;98015.47;4158387;28;20474;-73
2023/04/02 02:57:16;;;;;;;2.42;2.10;;;;;;;3.25;100.00;98015.72;4159973;28;20037;-73
2023/04/02 02:59:19;;;;;;;2.85;2.22;;;;;;;3.27;100.00;98009.88;4159199;28;20352;-73
2023/04/02 03:01:20;;;;;;;4.82;2.17;;;;;;;3.29;100.00;98019.34;4166437;28;20040;-73
2023/04/02 03:03:26;;;;;;;3.00;2.17;;;;;;;3.32;100.00;98024.16;4165835;28;20037;-72
2023/04/02 03:05:28;;;;;;;3.25;2.20;;;;;;;3.30;100.00;98036.53;4163574;28;20049;-73
2023/04/02 03:07:29;;;;;;;3.00;2.17;;;;;;;3.26;100.00;98030.16;4164218;28;20038;-73
2023/04/02 03:09:40;;;;;;;2.58;1.80;;;;;;;3.21;100.00;98038.59;4164976;28;20500;-73
2023/04/02 03:12:07;;;;;;;2.00;1.70;;;;;;;3.07;100.00;98044.41;4162534;28;20044;-73
2023/04/02 03:14:29;;;;;;;3.78;1.63;;;;;;;3.04;100.00;98043.13;4161576;28;20033;-73
2023/04/02 03:16:42;;;;;;;2.70;2.00;;;;;;;3.01;100.00;98043.81;4162898;28;20547;-73
2023/04/02 03:18:45;;;;;;;;;;;;;;;3.03;100.00;98052.47;4162410;28;20439;-73
2023/04/02 03:20:51;;;;;;;1.73;1.55;;;;;;;2.99;100.00;98051.56;4162835;28;19924;-72
2023/04/02 03:23:01;;;;;;;2.20;1.80;;;;;;;3.03;100.00;98060.66;4163963;28;20128;-73
2023/04/02 03:25:09;;;;;;;2.63;2.10;;;;;;;2.96;100.00;98067.81;4163407;28;20067;-72
2023/04/02 03:27:30;;;;;;;4.00;2.08;;;;;;;2.97;100.00;98075.66;4162548;28;20049;-73
2023/04/02 03:29:34;;;;;;;2.88;2.10;;;;;;;2.92;100.00;98067.69;4162697;28;20053;-73
2023/04/02 03:31:39;;;;;;;3.05;2.40;;;;;;;2.83;100.00;98077.91;4161868;28;20046;-72
2023/04/02 03:33:45;;;;;;;2.97;2.33;;;;;;;2.83;100.00;98082.59;4165962;28;20175;-72
2023/04/02 03:36:14;;;;;;;3.13;2.58;;;;;;;2.78;100.00;98092.59;4161393;28;20056;-72
2023/04/02 03:38:21;;;;;;;2.50;2.30;;;;;;;2.66;100.00;98089.03;4161590;28;20486;-72
2023/04/02 03:40:30;;;;;;;3.25;2.40;;;;;;;2.71;100.00;98097.78;4162803;28;20049;-72
2023/04/02 03:42:48;;;;;;;2.92;2.10;;;;;;;2.65;100.00;98110.06;4164254;28;20092;-73
2023/04/02 03:45:14;;;;;;;4.05;2.40;;;;;;;2.58;100.00;98103.56;4165161;28;20037;-72
2023/04/02 03:47:32;;;;;;;2.63;2.20;;;;;;;2.54;100.00;98119.78;4161075;28;20486;-72
2023/04/02 03:49:44;;;;;;;3.63;3.00;;;;;;;2.50;100.00;98121.59;4161717;28;20080;-72
2023/04/02 03:51:51;;;;;;;2.90;2.08;;;;;;;2.47;100.00;98120.31;4164058;28;20042;-72
2023/04/02 03:53:51;;;;;;;3.03;2.28;;;;;;;2.42;100.00;98123.25;4161457;28;20460;-72
2023/04/02 03:55:52;;;;;;;2.85;2.28;;;;;;;2.35;100.00;98119.47;4160567;28;20440;-72
2023/04/02 03:58:38;;;;;;;3.60;2.30;;;;;;;2.36;100.00;98137.44;4162242;28;20051;-72
2023/04/02 04:00:48;;;;;;;3.25;2.45;;;;;;;2.35;100.00;98135.84;4144819;28;20041;-72
2023/04/02 04:02:51;;;;;;;4.03;2.92;;;;;;;2.36;100.00;98135.50;4150355;28;20181;-72
2023/04/02 04:04:54;;;;;;;3.78;2.15;;;;;;;2.32;100.00;98133.75;4150781;28;20042;-72
2023/04/02 04:06:56;;;;;;;;;;;;;;;2.34;100.00;98151.44;4162131;28;20050;-72
2023/04/02 04:09:09;;;;;;;3.03;2.30;;;;;;;2.39;100.00;98153.16;4161224;28;19916;-72
2023/04/02 04:11:16;;;;;;;2.67;2.00;;;;;;;2.40;100.00;98158.31;4162942;28;20059;-72
2023/04/02 04:13:23;;;;;;;3.15;2.58;;;;;;;2.38;100.00;98152.34;4160966;28;20037;-72
2023/04/02 04:15:31;;;;;;;3.80;2.83;;;;;;;2.40;100.00;98155.56;4162007;28;20037;-72
2023/04/02 04:18:09;;;;;;;3.70;2.70;;;;;;;2.36;100.00;98164.75;4161400;28;20489;-72
2023/04/02 04:20:20;;;;;;;3.53;2.58;;;;;;;2.39;100.00;98175.00;4162908;28;20106;-72
2023/04/02 04:22:30;;;;;;;4.22;2.95;;;;;;;2.36;100.00;98173.72;4163671;28;20199;-72
2023/04/02 04:24:38;;;;;;;3.45;2.35;;;;;;;2.42;100.00;98186.06;4161251;28;20317;-72
2023/04/02 04:27:08;;;;;;;5.63;2.92;;;;;;;2.42;100.00;98193.47;4161749;28;20092;-72
2023/04/02 04:29:29;;;;;;;5.80;3.30;;;;;;;2.40;100.00;98187.50;4160690;28;20573;-72
2023/04/02 04:31:39;;;;;;;4.60;3.03;;;;;;;2.40;100.00;98202.00;4161719;28;20291;-72
2023/04/02 04:33:44;;;;;;;3.65;2.70;;;;;;;2.43;100.00;98208.72;4166478;28;20168;-72
2023/04/02 04:35:49;;;;;;;3.22;2.35;;;;;;;2.41;100.00;98202.78;4161548;28;20057;-72
2023/04/02 04:38:03;;;;;;;3.85;2.75;;;;;;;2.35;100.00;98215.81;4163101;28;20037;-72
2023/04/02 04:40:16;;;;;;;2.97;2.30;;;;;;;2.34;100.00;98216.16;4163536;28;20041;-72
2023/04/02 04:42:24;;;;;;;4.07;3.00;;;;;;;2.31;100.00;98228.53;4160285;28;20017;-72
2023/04/02 04:44:40;;;;;;;3.97;2.95;;;;;;;2.32;100.00;98229.31;4159767;28;20096;-72
2023/04/02 04:46:46;;;;;;;4.00;2.70;;;;;;;2.28;100.00;98239.31;4161683;28;20072;-72
2023/04/02 04:48:46;;;;;;;3.20;2.40;;;;;;;2.22;100.00;98247.66;4161349;28;20029;-72
2023/04/02 04:50:49;;;;;;;4.18;3.05;;;;;;;2.18;100.00;98249.47;4161522;28;20052;-72
2023/04/02 04:52:49;;;;;;;3.60;2.65;;;;;;;2.13;100.00;98251.56;4159563;28;20045;-72
2023/04/02 04:54:50;;;;;;;3.25;2.58;;;;;;;2.02;100.00;98264.78;4161868;28;20053;-72
2023/04/02 04:56:58;;;;;;;3.80;2.80;;;;;;;1.97;100.00;98271.22;4163171;28;20053;-72
2023/04/02 04:59:11;;;;;;;4.15;2.55;;;;;;;1.89;100.00;98269.31;4159689;28;20063;-72
2023/04/02 05:01:21;;;;;;;4.47;2.90;;;;;;;1.94;100.00;98276.53;4160611;28;20156;-72
2023/04/02 05:03:31;;;;;;;4.85;3.28;;;;;;;1.84;100.00;98283.16;4159911;28;20048;-72
2023/04/02 05:05:37;;;;;;;5.28;2.92;;;;;;;1.80;100.00;98281.38;4160013;28;20425;-72
2023/04/02 05:07:47;;;;;;;4.75;2.97;;;;;;;1.83;100.00;98294.41;4162140;28;20037;-72
2023/04/02 05:10:06;;;;;;;4.45;3.05;;;;;;;1.74;100.00;98291.69;4160742;28;20049;-72
2023/04/02 05:12:20;;;;;;;4.07;3.10;;;;;;;1.71;100.00;98296.97;4160361;28;20186;-72
2023/04/02 05:14:32;;;;;;;5.75;3.47;;;;;;;1.69;100.00;98306.28;4159799;28;20462;-72
2023/04/02 05:16:37;;;;;;;4.67;3.40;;;;;;;1.71;100.00;98307.88;4161715;28;20069;-72
2023/04/02 05:18:46;;;;;;;4.43;3.20;;;;;;;1.72;100.00;98307.56;4160416;28;20347;-72
2023/04/02 05:20:46;;;;;;;4.72;3.40;;;;;;;1.71;100.00;98303.22;4161540;28;20033;-72
2023/04/02 05:22:56;;;;;;;5.38;3.78;;;;;;;1.64;100.00;98311.91;4159675;28;20045;-72
2023/04/02 05:25:15;;;;;;;4.88;3.58;;;;;;;1.69;100.00;98319.13;4159367;28;20049;-72
2023/04/02 05:27:28;;;;;;;7.25;3.95;;;;;;;1.71;100.00;98319.59;4164759;28;20044;-72
2023/04/02 05:29:36;;;;;;;6.15;3.70;;;;;;;1.66;100.00;98320.59;4160429;28;20087;-72
2023/04/02 05:31:45;;;;;;;5.78;3.55;;;;;;;1.70;100.00;98334.34;4161222;28;20057;-72
2023/04/02 05:33:47;;;;;;;4.55;3.53;;;;;;;1.71;100.00;98333.22;4161225;28;20042;-72
2023/04/02 05:35:50;;;;;;;;;;;;;;;1.73;100.00;98341.88;4160980;28;20214;-72
2023/04/02 05:37:51;;;;;;;7.50;3.83;;;;;;;1.72;100.00;98331.31;4160569;28;20431;-72
2023/04/02 05:39:54;;;;;;;4.55;3.38;;;;;;;1.73;100.00;98335.63;4160142;28;20034;-72
2023/04/02 05:42:07;;;;;;;5.57;4.03;;;;;;;1.75;100.00;98339.66;4159378;28;20129;-72
2023/04/02 05:44:15;;;;;;;5.57;3.83;;;;;;;1.73;100.00;98333.69;4165244;28;20103;-72
2023/04/02 05:46:22;;;;;;;4.63;3.40;;;;;;;1.76;100.00;98352.16;4159904;28;20297;-72
2023/04/02 05:48:31;;;;;;;5.22;3.60;;;;;;;1.74;100.00;98354.44;4165219;28;20361;-72
2023/04/02 05:50:39;;;;;;;5.22;3.70;;;;;;;1.76;100.00;98365.00;4166255;28;20043;-72
2023/04/02 05:52:47;;;;;;;4.97;3.28;;;;;;;1.81;100.00;98371.06;4159832;28;20045;-72
2023/04/02 05:54:53;;;;;;;6.28;3.22;;;;;;;1.75;100.00;98377.84;4161232;28;20064;-72
2023/04/02 05:57:20;;;;;;;4.32;3.00;;;;;;;1.72;100.00;98375.75;4159417;28;20132;-72
2023/04/02 05:59:28;;;;;;;5.18;3.20;;;;;;;1.68;100.00;98380.25;4158442;28;20050;-72
2023/04/02 06:01:48;;;;;;;7.15;3.47;;;;;;;1.69;100.00;98385.38;4160782;28;20045;-72
2023/04/02 06:03:56;;;;;;;4.40;3.28;;;;;;;1.65;100.00;98387.13;4160507;28;20037;-72
2023/04/02 06:06:02;;;;;;;3.83;3.03;;;;;;;1.60;100.00;98389.25;4159455;28;20488;-72
2023/04/02 06:08:19;;;;;;;4.93;3.40;;;;;;;1.59;100.00;98404.81;4160854;28;20036;-72
2023/04/02 06:10:26;;;;;;;4.72;3.53;;;;;;;1.63;100.00;98404.94;4159738;28;20030;-72
2023/04/02 06:12:29;;;;;;;4.60;3.60;;;;;;;1.69;100.00;98411.84;4159910;28;20037;-72
2023/04/02 06:14:29;;;;;;;5.63;3.97;;;;;;;1.64;100.00;98412.81;4158597;28;20052;-72
2023/04/02 06:16:32;;;;;;;5.35;3.53;;;;;;;1.60;100.00;98414.59;4160117;28;20081;-72
2023/04/02 06:18:34;;;;;;;6.03;3.88;;;;;;;1.56;100.00;98416.34;4160052;28;20049;-72
2023/04/02 06:20:34;;;;;;;6.60;4.80;;;;;;;1.57;100.00;98419.84;4159593;28;20065;-72
2023/04/02 06:22:42;;;;;;;8.68;5.72;;;;;;;1.57;100.00;98425.31;4157805;28;20474;-72
2023/04/02 06:24:44;;;;;;;10.30;6.43;;;;;;;1.56;100.00;98432.69;4160473;28;20516;-72
2023/04/02 06:26:52;;;;;;;7.63;5.20;;;;;;;1.58;100.00;98435.13;4137606;27;20081;-72
2023/04/02 06:29:19;;;;;;;13.73;7.47;;;;;;;1.62;100.00;98445.06;4166923;28;20341;-72
2023/04/02 06:31:41;;;;;;;10.23;5.75;;;;;;;1.57;100.00;98438.94;4160263;28;20531;-72
2023/04/02 06:33:42;;;;;;;8.25;5.88;;;;;;;1.48;100.00;98449.84;4158783;28;20076;-72
2023/04/02 06:35:45;;;;;;;7.80;4.68;;;;;;;1.46;100.00;98463.00;4163977;28;20052;-72
2023/04/02 06:37:48;;;;;;;7.10;4.80;;;;;;;1.38;100.00;98458.34;4165388;28;21089;-72
2023/04/02 06:39:49;;;;;;;7.72;4.60;;;;;;;1.38;100.00;98461.06;4164052;28;20316;-72
2023/04/02 06:42:14;;;;;;;6.38;4.60;;;;;;;1.43;100.00;98463.66;4169448;28;20509;-72
2023/04/02 06:44:21;;;;;;;7.60;4.43;;;;;;;1.46;100.00;98468.47;4168006;28;20153;-72
2023/04/02 06:46:31;;;;;;;6.68;4.28;;;;;;;1.50;100.00;98474.09;4164725;28;20111;-72
2023/04/02 06:48:35;;;;;;;5.70;3.65;;;;;;;1.51;100.00;98479.22;4164757;28;20133;-72
2023/04/02 06:50:49;;;;;;;6.40;3.72;;;;;;;1.51;100.00;98475.69;4164466;28;20041;-72
2023/04/02 06:52:52;;;;;;;7.35;4.93;;;;;;;1.50;100.00;98474.91;4164117;28;20077;-72
2023/04/02 06:54:53;;;;;;;6.07;4.07;;;;;;;1.54;100.00;98492.22;4164682;28;20037;-72
2023/04/02 06:56:57;;;;;;;8.95;5.93;;;;;;;1.46;100.00;98494.91;4164983;28;20158;-72
2023/04/02 06:58:58;;;;;;;7.35;5.05;;;;;;;1.45;100.00;98498.78;4164788;28;20071;-72
2023/04/02 07:00:58;;;;;;;7.32;4.68;;;;;;;1.42;100.00;98504.88;4164168;28;20132;-72
2023/04/02 07:03:04;;;;;;;7.70;4.97;;;;;;;1.36;100.00;98501.47;4164873;28;20175;-72
2023/04/02 07:05:08;;;;;;;8.25;4.90;;;;;;;1.43;100.00;98514.66;4165095;28;20044;-72
2023/04/02 07:07:08;;;;;;;6.85;4.93;;;;;;;1.40;100.00;98516.06;4164977;28;20382;-72
2023/04/02 07:09:08;;;;;;;7.57;4.90;;;;;;;1.39;100.00;98515.25;4165153;28;20037;-72
2023/04/02 07:11:14;;;;;;;7.68;4.93;;;;;;;1.39;100.00;98512.53;4164675;28;20114;-72
2023/04/02 07:13:17;;;;;;;11.75;6.03;;;;;;;1.38;100.00;98531.94;4169023;28;20139;-72
2023/04/02 07:15:18;;;;;;;7.25;5.35;;;;;;;1.32;100.00;98533.19;4168048;28;20029;-73
2023/04/02 07:17:20;;;;;;;8.68;5.40;;;;;;;1.32;100.00;98534.00;4164817;28;20042;-72
2023/04/02 07:19:21;;;;;;;7.65;5.25;;;;;;;1.35;100.00;98540.75;4168542;28;20393;-72
2023/04/02 07:21:22;;;;;;;8.90;5.55;;;;;;;1.34;100.00;98544.63;4165796;28;20765;-72
2023/04/02 07:23:23;;;;;;;10.32;5.80;;;;;;;1.33;100.00;98545.75;4162814;28;20045;-72
2023/04/02 07:25:25;;;;;;;9.13;6.00;;;;;;;1.37;100.00;98554.88;4165099;28;20452;-72
2023/04/02 07:27:26;;;;;;;6.38;4.55;;;;;;;1.42;100.00;98552.03;4169371;28;20048;-72
2023/04/02 07:29:27;;;;;;;6.45;4.40;;;;;;;1.42;100.00;98559.41;4166044;28;20245;-72
2023/04/02 07:31:28;;;;;;;7.88;5.18;;;;;;;1.39;100.00;98566.25;4163392;28;20038;-72
2023/04/02 07:33:29;;;;;;;6.00;4.30;;;;;;;1.44;100.00;98554.44;4164473;28;21048;-72
2023/04/02 07:35:30;;;;;;;8.05;5.60;;;;;;;1.38;100.00;98561.94;4164549;28;20077;-72
2023/04/02 07:37:30;;;;;;;7.38;4.50;;;;;;;1.45;100.00;98572.38;4169317;28;20371;-72
2023/04/02 07:39:31;;;;;;;7.63;4.75;;;;;;;1.45;100.00;98567.75;4165263;28;20132;-72
2023/04/02 07:41:32;;;;;;;5.88;3.65;;;;;;;1.47;100.00;98584.56;4164648;28;20049;-72
2023/04/02 07:43:34;;;;;;;7.70;4.60;;;;;;;1.43;100.00;98582.81;4163637;28;20049;-72
2023/04/02 07:45:34;;;;;;;5.80;2.95;;;;;;;1.37;100.00;98590.31;4165017;28;20044;-72
2023/04/02 07:47:35;;;;;;;3.80;3.03;;;;;;;1.35;100.00;98590.63;4162243;28;20136;-72
2023/04/02 07:49:35;;;;;;;6.97;5.10;;;;;;;1.32;100.00;98593.16;4161628;28;20080;-72
2023/04/02 07:51:36;;;;;;;4.82;3.40;;;;;;;1.37;100.00;98598.50;4163211;28;20484;-72
2023/04/02 07:53:37;;;;;;;5.00;3.53;;;;;;;1.34;100.00;98605.41;4160747;28;20068;-72
2023/04/02 07:55:37;;;;;;;5.45;4.10;;;;;;;1.35;100.00;98601.53;4164315;28;20049;-72
2023/04/02 07:57:53;;;;;;;5.15;3.47;;;;;;;1.43;100.00;98610.88;4163215;28;20098;-72
2023/04/02 07:59:55;;;;;;;5.95;3.10;;;;;;;1.51;100.00;98623.75;4162417;28;20045;-72
2023/04/02 08:01:56;;;;;;;4.03;3.35;;;;;;;1.49;100.00;98620.53;4162234;28;20040;-72
2023/04/02 08:03:57;;;;;;;4.88;2.95;;;;;;;1.45;100.00;98621.47;4160432;28;20045;-72
2023/04/02 08:05:57;;;;;;;5.32;3.33;;;;;;;1.44;100.00;98630.78;4162643;28;20045;-72
2023/04/02 08:07:57;;;;;;;6.35;4.60;;;;;;;1.43;100.00;98623.72;4160659;28;20189;-72
2023/04/02 08:09:58;;;;;;;4.80;2.90;;;;;;;1.43;100.00;98634.63;4163191;28;20441;-72
2023/04/02 08:11:58;;;;;;;3.47;2.60;;;;;;;1.36;100.00;98646.78;4161674;28;20599;-72
2023/04/02 08:13:58;;;;;;;4.50;3.17;;;;;;;1.38;100.00;98646.44;4160058;28;20037;-72
2023/04/02 08:16:00;;;;;;;5.97;3.20;;;;;;;1.35;100.00;98656.06;4163404;28;20052;-72
2023/04/02 08:18:00;;;;;;;6.78;3.50;;;;;;;1.33;100.00;98666.50;4160729;28;20385;-72
2023/04/02 08:20:01;;;;;;;5.07;3.95;;;;;;;1.35;100.00;98666.16;4161471;28;20089;-72
2023/04/02 08:22:01;;;;;;;8.45;5.00;;;;;;;1.36;100.00;98668.56;4160946;28;20417;-72
2023/04/02 08:24:03;;;;;;;5.95;4.13;;;;;;;1.37;100.00;98678.34;4160784;28;20377;-72
2023/04/02 08:26:04;;;;;;;5.95;4.57;;;;;;;1.44;100.00;98667.00;4160285;28;20029;-72
2023/04/02 08:28:05;;;;;;;8.60;4.60;;;;;;;1.36;100.00;98679.47;4161275;28;20025;-72
2023/04/02 08:30:07;;;;;;;4.88;4.18;;;;;;;1.36;100.00;98689.59;4160858;28;20122;-72
2023/04/02 08:32:10;;;;;;;7.05;4.50;;;;;;;1.36;100.00;98682.22;4161724;28;20037;-72
2023/04/02 08:34:11;;;;;;;6.15;4.07;;;;;;;1.34;100.00;98694.56;4161751;28;20457;-72
2023/04/02 08:36:16;;;;;;;6.90;5.10;;;;;;;1.33;100.00;98703.84;4165316;28;20380;-72
2023/04/02 08:38:18;;;;;;;6.05;4.05;;;;;;;1.18;100.00;98706.97;4160411;28;20029;-72
2023/04/02 08:40:28;;;;;;;8.60;4.75;;;;;;;1.13;100.00;98705.94;4161238;28;20083;-72
2023/04/02 08:42:37;;;;;;;8.02;5.93;;;;;;;1.11;100.00;98708.19;4160547;28;20045;-72
2023/04/02 08:45:05;;;;;;;8.65;4.60;;;;;;;1.03;100.00;98717.09;4160866;28;20175;-72
2023/04/02 08:47:08;;;;;;;8.05;5.82;;;;;;;1.02;100.00;98718.22;4160511;28;20421;-72
2023/04/02 08:49:15;;;;;;;9.52;5.03;;;;;;;1.00;100.00;98725.91;4160586;28;20486;-72
2023/04/02 08:51:24;;;;;;;7.97;5.65;;;;;;;0.99;100.00;98727.00;4159714;28;20037;-72
2023/04/02 08:53:30;;;;;;;10.75;6.55;;;;;;;0.97;100.00;98728.44;4163416;28;20538;-72
2023/04/02 08:56:04;;;;;;;11.85;6.55;;;;;;;1.02;100.00;98734.56;4160831;28;20524;-72
2023/04/02 08:58:16;;;;;;;9.73;6.00;;;;;;;0.97;100.00;98733.88;4159709;28;20081;-72
2023/04/02 09:00:38;;;;;;;9.53;6.00;;;;;;;0.89;100.00;98731.88;4160291;28;20116;-72
2023/04/02 09:02:44;;;;;;;10.07;6.63;;;;;;;0.87;100.00;98734.94;4162526;28;20045;-72
2023/04/02 09:04:45;;;;;;;11.48;7.15;;;;;;;0.91;100.00;98733.22;4163214;28;20063;-72
2023/04/02 09:06:48;;;;;;;11.60;6.00;;;;;;;0.87;100.00;98737.66;4159280;28;20545;-72
2023/04/02 09:08:51;;;;;;;19.70;13.55;;;;;;;0.90;100.00;98758.00;4160825;28;20210;-72
2023/04/02 09:11:11;;;;;;;19.00;10.98;;;;;;;0.92;100.00;98750.38;4161076;28;20051;-72
2023/04/02 09:13:27;;;;;;;12.40;8.52;;;;;;;0.93;100.00;98754.69;4163271;28;20447;-72
2023/04/02 09:15:33;;;;;;;11.32;7.38;;;;;;;0.97;100.00;98758.41;4165008;28;20127;-72
2023/04/02 09:17:33;;;;;;;10.50;6.28;;;;;;;0.98;100.00;98769.00;4164656;28;20045;-72
2023/04/02 09:19:40;;;;;;;8.85;5.97;;;;;;;0.95;100.00;98771.53;4160004;28;20564;-72
2023/04/02 09:21:45;;;;;;;8.40;6.43;;;;;;;0.93;100.00;98787.38;4160374;28;20139;-72
2023/04/02 09:23:47;;;;;;;12.50;7.13;;;;;;;0.96;100.00;98767.69;4164198;28;20045;-72
2023/04/02 09:25:50;;;;;;;10.88;6.43;;;;;;;0.97;100.00;98786.44;4161170;28;20116;-72
2023/04/02 09:27:53;;;;;;;11.13;7.82;;;;;;;0.96;100.00;98793.00;4164570;28;20144;-72
2023/04/02 09:30:25;;;;;;;9.75;6.90;;;;;;;0.92;100.00;98802.94;4164065;28;20127;-72
2023/04/02 09:32:34;;;;;;;10.00;7.73;;;;;;;0.87;100.00;98805.75;4159869;28;20378;-72
2023/04/02 09:34:35;;;;;;;13.20;9.07;;;;;;;0.90;100.00;98812.50;4159022;28;20440;-72
2023/04/02 09:36:38;;;;;;;9.30;6.78;;;;;;;0.87;100.00;98824.81;4160510;28;20041;-72
2023/04/02 09:38:38;;;;;;;;;;;;;;;0.92;100.00;98823.91;4159657;28;20157;-71
2023/04/02 09:40:57;;;;;;;9.75;6.30;;;;;;;0.92;100.00;98830.19;4163953;28;20030;-72
2023/04/02 09:43:03;;;;;;;10.45;6.32;;;;;;;0.91;100.00;98831.28;4177886;28;20175;-72
2023/04/02 09:45:18;;;;;;;9.50;6.13;;;;;;;0.96;100.00;98822.97;4160454;28;20041;-72
2023/04/02 09:47:25;;;;;;;9.88;5.90;;;;;;;0.97;100.00;98838.22;4159727;28;20059;-72
2023/04/02 09:49:32;;;;;;;9.07;5.35;;;;;;;0.99;100.00;98841.44;4163940;28;20055;-72
2023/04/02 09:51:35;;;;;;;9.90;7.15;;;;;;;1.00;100.00;98839.53;4159433;28;20034;-72
2023/04/02 09:54:00;;;;;;;8.00;5.32;;;;;;;1.04;100.00;98837.81;4160080;28;20039;-72
2023/04/02 09:56:16;;;;;;;6.78;4.93;;;;;;;1.04;100.00;98840.53;4159829;28;20049;-72
2023/04/02 09:58:17;;;;;;;9.23;4.80;;;;;;;1.01;100.00;98847.41;4159863;28;20029;-72
2023/04/02 10:00:25;;;;;;;8.07;5.15;;;;;;;1.00;100.00;98848.53;4160769;28;20053;-72